createdAt,value
2018-08-17T00:00:00.462Z,24.8
2018-08-17T00:05:00.364Z,24.9
2018-08-17T00:10:00.431Z,23.4
2018-08-17T00:15:00.367Z,23.0
2018-08-17T00:20:00.389Z,23.5
2018-08-17T00:25:00.375Z,22.7
2018-08-17T00:30:00.444Z,23.1
2018-08-17T00:35:00.386Z,23.8
2018-08-17T00:40:00.527Z,23.3
2018-08-17T00:45:00.381Z,22.7
2018-08-17T00:50:00.392Z,22.9
2018-08-17T00:55:00.396Z,21.5
2018-08-17T01:00:00.461Z,21.7
2018-08-17T01:05:00.392Z,21.8
2018-08-17T01:10:00.398Z,21.4
2018-08-17T01:15:00.392Z,20.7
2018-08-17T01:20:00.515Z,19.9
2018-08-17T01:25:00.391Z,19.4
2018-08-17T01:30:00.456Z,19.0
2018-08-17T01:35:00.406Z,19.8
2018-08-17T01:40:00.475Z,20.5
2018-08-17T01:45:00.395Z,21.2
2018-08-17T01:50:00.398Z,21.6
2018-08-17T01:55:00.394Z,23.1
2018-08-17T02:00:00.431Z,24.0
2018-08-17T02:05:00.368Z,24.6
2018-08-17T02:10:00.496Z,25.2
2018-08-17T02:15:00.372Z,26.7
2018-08-17T02:20:00.375Z,25.2
2018-08-17T02:25:00.401Z,24.9
2018-08-17T02:30:00.446Z,24.7
2018-08-17T02:35:00.370Z,25.0
2018-08-17T02:40:00.507Z,23.9
2018-08-17T02:45:00.412Z,26.2
2018-08-17T02:50:00.463Z,27.1
2018-08-17T02:55:00.403Z,27.2
2018-08-17T03:00:00.538Z,27.9
2018-08-17T03:05:00.376Z,28.7
2018-08-17T03:10:00.509Z,28.5
2018-08-17T03:15:00.385Z,28.4
2018-08-17T03:20:00.514Z,29.0
2018-08-17T03:25:00.387Z,28.7
2018-08-17T03:30:00.450Z,29.8
2018-08-17T03:35:00.387Z,30.2
2018-08-17T03:40:00.456Z,31.4
2018-08-17T03:45:00.395Z,31.6
2018-08-17T03:50:00.487Z,33.4
2018-08-17T03:55:00.419Z,33.2
2018-08-17T04:00:00.489Z,33.5
2018-08-17T04:05:00.432Z,33.8
2018-08-17T04:10:00.449Z,35.6
2018-08-17T04:15:00.458Z,34.4
2018-08-17T04:20:00.527Z,36.2
2018-08-17T04:25:00.444Z,34.8
2018-08-17T04:30:00.553Z,34.9
2018-08-17T04:35:00.451Z,34.0
2018-08-17T04:40:00.450Z,35.1
2018-08-17T04:45:00.429Z,33.9
2018-08-17T04:50:00.537Z,36.8
2018-08-17T04:55:00.406Z,35.9
2018-08-17T05:00:00.435Z,36.4
2018-08-17T05:05:00.439Z,35.3
2018-08-17T05:10:00.571Z,35.0
2018-08-17T05:15:00.462Z,32.4
2018-08-17T05:20:00.544Z,32.0
2018-08-17T05:25:00.419Z,30.8
2018-08-17T05:30:00.545Z,29.4
2018-08-17T05:35:00.419Z,27.2
2018-08-17T05:40:00.493Z,26.4
2018-08-17T05:45:00.431Z,25.5
2018-08-17T05:50:00.423Z,23.6
2018-08-17T05:55:00.426Z,22.8
2018-08-17T06:00:00.426Z,22.2
2018-08-17T06:05:00.397Z,21.5
2018-08-17T06:10:00.433Z,19.6
2018-08-17T06:15:00.429Z,18.8
2018-08-17T06:20:00.508Z,18.4
2018-08-17T06:25:00.434Z,17.7
2018-08-17T06:30:00.564Z,16.8
2018-08-17T06:35:00.463Z,17.0
2018-08-17T06:45:00.562Z,16.5
2018-08-17T06:50:00.594Z,17.4
2018-08-17T06:55:00.469Z,16.9
2018-08-17T07:00:00.580Z,16.6
2018-08-17T07:05:00.446Z,16.0
2018-08-17T07:10:00.447Z,15.7
2018-08-17T07:15:00.450Z,13.1
2018-08-17T07:20:00.459Z,11.9
2018-08-17T07:25:00.450Z,10.6
2018-08-17T07:30:00.586Z,9.5
2018-08-17T07:35:00.456Z,7.8
2018-08-17T07:40:00.462Z,7.7
2018-08-17T07:45:00.486Z,7.5
2018-08-17T07:50:00.561Z,7.1
2018-08-17T07:55:00.492Z,6.7
2018-08-17T08:00:00.592Z,6.9
2018-08-17T08:05:00.467Z,6.6
2018-08-17T08:10:00.611Z,6.5
2018-08-17T08:15:00.470Z,6.1
2018-08-17T08:20:00.539Z,6.4
2018-08-17T08:40:00.611Z,7.8
2018-08-17T08:45:00.400Z,8.5
2018-08-17T08:50:00.460Z,9.0
2018-08-17T08:55:00.393Z,8.8
2018-08-17T09:00:00.397Z,8.7
2018-08-17T09:05:00.402Z,9.2
2018-08-17T09:15:00.530Z,9.2
2018-08-17T09:20:00.469Z,9.5
2018-08-17T09:25:00.399Z,9.8
2018-08-17T09:30:00.485Z,9.8
2018-08-17T09:35:00.413Z,9.7
2018-08-17T09:40:00.545Z,10.0
2018-08-17T09:45:00.416Z,10.2
2018-08-17T09:50:00.481Z,10.7
2018-08-17T09:55:00.419Z,10.3
2018-08-17T10:00:00.489Z,11.3
2018-08-17T10:05:00.437Z,11.0
2018-08-17T10:10:00.559Z,10.6
2018-08-17T10:15:00.435Z,9.8
2018-08-17T10:20:00.424Z,10.1
2018-08-17T10:25:00.430Z,9.1
2018-08-17T10:30:00.497Z,9.0
2018-08-17T10:35:00.425Z,8.7
2018-08-17T10:45:00.500Z,8.3
2018-08-17T10:50:00.456Z,8.0
2018-08-17T10:55:00.462Z,8.1
2018-08-17T11:00:00.532Z,8.6
2018-08-17T11:05:00.480Z,8.8
2018-08-17T11:15:00.504Z,9.0
2018-08-17T11:20:00.579Z,8.5
2018-08-17T11:25:00.444Z,8.1
2018-08-17T11:30:00.508Z,8.2
2018-08-17T11:35:00.438Z,8.0
2018-08-17T11:40:00.508Z,7.9
2018-08-17T11:45:00.450Z,8.5
2018-08-17T11:50:00.579Z,8.7
2018-08-17T11:55:00.453Z,8.2
2018-08-17T12:00:00.515Z,8.5
2018-08-17T12:05:00.453Z,8.4
2018-08-17T12:10:00.524Z,7.7
2018-08-17T12:15:00.429Z,7.0
2018-08-17T12:20:00.590Z,6.7
2018-08-17T12:25:00.521Z,6.0
2018-08-17T12:30:00.588Z,5.2
2018-08-17T12:35:00.462Z,5.0
2018-08-17T12:40:00.556Z,4.8
2018-08-17T12:45:00.463Z,4.4
2018-08-17T13:00:00.566Z,3.9
2018-08-17T13:15:00.599Z,3.7
2018-08-17T13:20:00.634Z,3.6
2018-08-17T13:25:00.446Z,4.4
2018-08-17T13:30:00.560Z,4.5
2018-08-17T13:35:00.502Z,4.7
2018-08-17T13:40:00.684Z,5.0
2018-08-17T13:45:00.480Z,5.2
2018-08-17T13:50:00.547Z,4.8
2018-08-17T14:00:00.617Z,4.5
2018-08-17T14:05:00.492Z,4.4
2018-08-17T14:10:00.567Z,4.8
2018-08-17T14:15:00.486Z,4.6
2018-08-17T14:20:00.557Z,5.1
2018-08-17T14:25:00.500Z,5.3
2018-08-17T14:30:00.523Z,5.2
2018-08-17T14:40:00.563Z,5.3
2018-08-17T14:45:00.522Z,4.9
2018-08-17T14:50:00.568Z,5.0
2018-08-17T14:55:00.535Z,5.2
2018-08-17T15:00:00.505Z,4.8
2018-08-17T15:15:00.636Z,4.6
2018-08-17T15:20:00.571Z,4.4
2018-08-17T15:25:00.505Z,4.8
2018-08-17T15:30:00.580Z,4.8
2018-08-17T15:35:00.517Z,5.0
2018-08-17T15:40:00.653Z,5.3
2018-08-17T15:45:00.513Z,5.1
2018-08-17T15:55:00.512Z,5.2
2018-08-17T16:00:00.588Z,5.5
2018-08-17T16:05:00.519Z,5.8
2018-08-17T16:10:00.516Z,6.6
2018-08-17T16:15:00.526Z,6.6
2018-08-17T16:20:00.528Z,6.7
2018-08-17T16:30:00.593Z,6.7
2018-08-17T16:35:00.526Z,6.0
2018-08-17T16:40:00.543Z,6.4
2018-08-17T16:45:00.531Z,6.3
2018-08-17T16:50:00.539Z,5.8
2018-08-17T16:55:00.593Z,5.4
2018-08-17T17:00:00.537Z,5.9
2018-08-17T17:05:00.543Z,5.4
2018-08-17T17:10:00.541Z,5.5
2018-08-17T17:15:00.543Z,5.7
2018-08-17T17:20:00.547Z,6.5
2018-08-17T17:25:00.575Z,6.7
2018-08-17T17:30:00.580Z,6.9
2018-08-17T17:35:00.593Z,7.6
2018-08-17T17:40:00.574Z,7.8
2018-08-17T17:45:00.583Z,7.2
2018-08-17T17:50:00.594Z,6.8
2018-08-17T17:55:00.562Z,7.2
2018-08-17T18:00:00.590Z,6.6
2018-08-17T18:05:00.593Z,7.2
2018-08-17T18:10:00.610Z,7.5
2018-08-17T18:15:00.619Z,8.5
2018-08-17T18:20:00.612Z,8.1
2018-08-17T18:25:00.612Z,8.8
2018-08-17T18:30:00.596Z,8.4
2018-08-17T18:35:00.593Z,8.7
2018-08-17T18:40:00.641Z,8.4
2018-08-17T18:45:00.585Z,8.8
2018-08-17T18:50:00.700Z,8.3
2018-08-17T19:00:00.581Z,7.8
2018-08-17T19:05:00.644Z,7.4
2018-08-17T19:10:00.660Z,7.0
2018-08-17T19:15:00.585Z,7.0
2018-08-17T19:20:00.709Z,6.8
2018-08-17T19:25:00.620Z,6.9
2018-08-17T19:30:00.616Z,7.0
2018-08-17T19:35:00.610Z,7.2
2018-08-17T19:45:00.681Z,7.2
2018-08-17T19:50:00.691Z,7.6
2018-08-17T19:55:00.597Z,7.9
2018-08-17T20:00:00.728Z,8.1
2018-08-17T20:05:00.594Z,8.2
2018-08-17T20:10:00.666Z,8.4
2018-08-17T20:15:00.608Z,8.0
2018-08-17T20:20:00.668Z,7.8
2018-08-17T20:25:00.608Z,8.0
2018-08-17T20:30:00.736Z,8.0
2018-08-17T20:35:00.630Z,8.2
2018-08-17T20:40:00.618Z,8.6
2018-08-17T20:45:00.605Z,8.8
2018-08-17T20:55:00.705Z,9.2
2018-08-17T21:00:00.744Z,9.4
2018-08-17T21:05:00.614Z,9.5
2018-08-17T21:10:00.678Z,9.6
2018-08-17T21:15:00.636Z,9.9
2018-08-17T21:25:00.710Z,9.8
2018-08-17T21:30:00.640Z,10.2
2018-08-17T21:35:00.756Z,10.3
2018-08-17T21:40:00.716Z,10.2
2018-08-17T21:45:00.623Z,10.2
2018-08-17T21:50:00.685Z,10.5
2018-08-17T21:55:00.622Z,10.4
2018-08-17T22:00:00.622Z,10.2
2018-08-17T22:05:00.629Z,10.7
2018-08-17T22:10:00.629Z,11.5
2018-08-17T22:15:00.620Z,11.0
2018-08-17T22:20:00.693Z,10.6
2018-08-17T22:25:00.627Z,11.2
2018-08-17T22:30:00.703Z,11.1
2018-08-17T22:35:00.661Z,11.2
2018-08-17T22:40:00.767Z,12.0
2018-08-17T22:45:00.633Z,12.6
2018-08-17T22:55:00.735Z,12.0
2018-08-17T23:00:00.704Z,11.5
2018-08-17T23:05:00.643Z,10.8
2018-08-17T23:10:00.775Z,10.4
2018-08-17T23:15:00.682Z,9.8
2018-08-17T23:25:00.811Z,9.6
2018-08-17T23:30:00.673Z,9.8
2018-08-17T23:35:00.688Z,10.4
2018-08-17T23:40:00.778Z,10.9
2018-08-17T23:45:00.684Z,11.0
2018-08-17T23:50:00.661Z,10.8
2018-08-17T23:55:00.659Z,10.9
